createdAt,value
2019-05-28T00:02:09.039Z,18.90
2019-05-28T00:04:39.098Z,18.90
2019-05-28T00:07:08.969Z,18.90
2019-05-28T00:09:38.901Z,18.80
2019-05-28T00:12:08.718Z,18.90
2019-05-28T00:14:38.519Z,18.80
2019-05-28T00:17:08.401Z,18.80
2019-05-28T00:19:38.209Z,18.80
2019-05-28T00:22:08.049Z,18.80
2019-05-28T00:24:37.990Z,18.80
2019-05-28T00:27:08.797Z,18.80
2019-05-28T00:29:38.658Z,18.80
2019-05-28T00:32:08.576Z,18.80
2019-05-28T00:34:38.389Z,18.80
2019-05-28T00:37:08.381Z,18.80
2019-05-28T00:39:38.262Z,18.70
2019-05-28T00:42:08.065Z,18.70
2019-05-28T00:44:37.969Z,18.70
2019-05-28T00:47:07.892Z,18.70
2019-05-28T00:49:37.706Z,18.60
2019-05-28T00:52:07.557Z,18.60
2019-05-28T00:54:37.574Z,18.60
2019-05-28T00:57:08.606Z,18.50
2019-05-28T00:59:39.078Z,18.50
2019-05-28T01:02:09.745Z,18.50
2019-05-28T01:04:39.578Z,18.40
2019-05-28T01:07:10.726Z,18.40
2019-05-28T01:09:40.605Z,18.40
2019-05-28T01:12:10.534Z,18.40
2019-05-28T01:14:41.167Z,18.30
2019-05-28T01:17:11.186Z,18.30
2019-05-28T01:19:41.045Z,18.30
2019-05-28T01:22:10.866Z,18.30
2019-05-28T01:24:40.675Z,18.30
2019-05-28T01:27:10.541Z,18.30
2019-05-28T01:29:41.102Z,18.30
2019-05-28T01:32:10.971Z,18.30
2019-05-28T01:34:40.772Z,18.30
2019-05-28T01:37:10.702Z,18.30
2019-05-28T01:39:40.501Z,18.30
2019-05-28T01:42:10.326Z,18.30
2019-05-28T01:44:40.255Z,18.30
2019-05-28T01:47:10.061Z,18.30
2019-05-28T01:49:39.921Z,18.30
2019-05-28T01:52:09.853Z,18.30
2019-05-28T01:54:39.693Z,18.30
2019-05-28T01:57:09.510Z,18.30
2019-05-28T01:59:40.606Z,18.30
2019-05-28T02:02:10.447Z,18.20
2019-05-28T02:04:40.353Z,18.20
2019-05-28T02:07:10.194Z,18.20
2019-05-28T02:09:40.138Z,18.20
2019-05-28T02:12:09.958Z,18.20
2019-05-28T02:14:39.793Z,18.20
2019-05-28T02:17:09.604Z,18.20
2019-05-28T02:19:39.537Z,18.10
2019-05-28T02:22:09.372Z,18.10
2019-05-28T02:24:39.346Z,18.10
2019-05-28T02:27:09.144Z,18.00
2019-05-28T02:29:39.003Z,18.00
2019-05-28T02:32:08.906Z,18.00
2019-05-28T02:34:38.715Z,18.00
2019-05-28T02:37:08.786Z,18.00
2019-05-28T02:39:38.704Z,18.00
2019-05-28T02:42:08.581Z,18.00
2019-05-28T02:44:38.639Z,18.00
2019-05-28T02:47:08.589Z,18.00
2019-05-28T02:49:38.479Z,18.00
2019-05-28T02:52:08.485Z,18.00
2019-05-28T02:54:38.388Z,18.00
2019-05-28T02:57:09.950Z,18.00
2019-05-28T02:59:41.084Z,18.00
2019-05-28T03:02:12.433Z,18.00
2019-05-28T03:04:43.692Z,18.00
2019-05-28T03:07:14.301Z,18.00
2019-05-28T03:09:46.676Z,18.00
2019-05-28T03:12:16.492Z,18.00
2019-05-28T03:14:46.484Z,18.00
2019-05-28T03:17:17.183Z,18.00
2019-05-28T03:19:47.677Z,17.90
2019-05-28T03:22:19.350Z,17.90
2019-05-28T03:24:50.396Z,17.90
2019-05-28T03:27:20.425Z,17.80
2019-05-28T03:29:50.305Z,17.80
2019-05-28T03:32:20.201Z,17.70
2019-05-28T03:34:50.210Z,17.70
2019-05-28T03:37:20.393Z,17.70
2019-05-28T03:39:53.238Z,17.70
2019-05-28T03:42:23.184Z,17.70
2019-05-28T03:44:53.747Z,17.60
2019-05-28T03:47:23.568Z,17.60
2019-05-28T03:49:53.480Z,17.60
2019-05-28T03:52:23.450Z,17.60
2019-05-28T03:54:53.403Z,17.60
2019-05-28T03:57:23.258Z,17.50
2019-05-28T03:59:57.694Z,17.50
2019-05-28T04:02:25.630Z,17.60
2019-05-28T04:04:55.533Z,17.60
2019-05-28T04:07:25.348Z,17.60
2019-05-28T04:09:55.249Z,17.60
2019-05-28T04:12:25.169Z,17.60
2019-05-28T04:14:54.970Z,17.60
2019-05-28T04:17:24.830Z,17.60
2019-05-28T04:19:54.732Z,17.60
2019-05-28T04:22:24.585Z,17.60
2019-05-28T04:24:54.449Z,17.60
2019-05-28T04:27:24.293Z,17.70
2019-05-28T04:29:54.110Z,17.70
2019-05-28T04:32:39.489Z,17.70
2019-05-28T04:34:55.668Z,17.80
2019-05-28T04:37:25.518Z,17.80
2019-05-28T04:39:55.393Z,17.80
2019-05-28T04:42:25.197Z,17.80
2019-05-28T04:44:55.212Z,17.80
2019-05-28T04:47:25.044Z,17.80
2019-05-28T04:49:54.893Z,17.80
2019-05-28T04:52:24.713Z,17.80
2019-05-28T04:54:54.794Z,17.80
2019-05-28T04:57:24.610Z,17.80
2019-05-28T04:59:54.425Z,17.80
2019-05-28T05:02:24.482Z,17.80
2019-05-28T05:04:54.350Z,17.80
2019-05-28T05:07:24.229Z,17.90
2019-05-28T05:09:54.186Z,18.00
2019-05-28T05:12:24.044Z,18.00
2019-05-28T05:14:53.951Z,18.10
2019-05-28T05:17:23.858Z,18.20
2019-05-28T05:19:53.701Z,18.10
2019-05-28T05:22:24.250Z,18.20
2019-05-28T05:24:55.209Z,18.20
2019-05-28T05:27:25.155Z,18.20
2019-05-28T05:29:55.070Z,18.20
2019-05-28T05:32:27.745Z,18.20
2019-05-28T05:34:56.525Z,18.20
2019-05-28T05:37:26.450Z,18.10
2019-05-28T05:39:56.276Z,18.20
2019-05-28T05:42:26.136Z,18.20
2019-05-28T05:44:55.981Z,18.20
2019-05-28T05:47:25.838Z,18.20
2019-05-28T05:49:55.774Z,18.20
2019-05-28T05:52:25.596Z,18.20
2019-05-28T05:54:55.450Z,18.20
2019-05-28T05:57:25.362Z,18.20
2019-05-28T05:59:55.302Z,18.30
2019-05-28T06:02:25.953Z,18.30
2019-05-28T06:04:55.952Z,18.30
2019-05-28T06:07:25.807Z,18.40
2019-05-28T06:09:55.747Z,18.40
2019-05-28T06:12:25.766Z,18.50
2019-05-28T06:14:55.645Z,18.50
2019-05-28T06:17:25.525Z,18.60
2019-05-28T06:19:55.405Z,18.60
2019-05-28T06:22:25.267Z,18.70
2019-05-28T06:24:55.122Z,18.80
2019-05-28T06:27:25.027Z,18.80
2019-05-28T06:29:54.929Z,18.80
2019-05-28T06:32:24.765Z,18.80
2019-05-28T06:34:54.594Z,18.90
2019-05-28T06:37:24.649Z,19.00
2019-05-28T06:39:54.525Z,19.10
2019-05-28T06:42:25.919Z,19.20
2019-05-28T06:44:56.080Z,19.40
2019-05-28T06:47:26.023Z,19.70
2019-05-28T06:49:55.933Z,19.90
2019-05-28T06:52:25.891Z,20.00
2019-05-28T06:54:55.766Z,20.20
2019-05-28T06:57:25.780Z,20.30
2019-05-28T06:59:55.617Z,20.30
2019-05-28T07:02:25.731Z,20.20
2019-05-28T07:04:55.656Z,20.20
2019-05-28T07:07:26.667Z,20.10
2019-05-28T07:09:56.594Z,20.10
2019-05-28T07:12:26.516Z,20.00
2019-05-28T07:14:56.420Z,19.90
2019-05-28T07:17:27.208Z,19.90
2019-05-28T07:19:57.107Z,19.90
2019-05-28T07:22:27.012Z,19.90
2019-05-28T07:24:56.899Z,20.00
2019-05-28T07:27:26.838Z,19.90
2019-05-28T07:29:56.705Z,19.90
2019-05-28T07:32:26.633Z,20.00
2019-05-28T07:34:56.575Z,20.10
2019-05-28T07:37:26.414Z,20.20
2019-05-28T07:39:56.445Z,20.30
2019-05-28T07:42:32.641Z,20.30
2019-05-28T07:44:57.968Z,20.40
2019-05-28T07:47:27.834Z,20.40
2019-05-28T07:49:58.560Z,20.50
2019-05-28T07:52:28.494Z,20.50
2019-05-28T07:54:58.412Z,20.60
2019-05-28T07:57:28.281Z,20.60
2019-05-28T07:59:58.141Z,20.50
2019-05-28T08:02:28.102Z,20.40
2019-05-28T08:04:58.045Z,20.40
2019-05-28T08:07:27.985Z,20.30
2019-05-28T08:09:57.955Z,20.20
2019-05-28T08:12:27.896Z,20.10
2019-05-28T08:14:57.749Z,20.10
2019-05-28T08:17:27.679Z,20.10
2019-05-28T08:19:57.578Z,20.20
2019-05-28T08:22:41.130Z,20.30
2019-05-28T08:24:59.695Z,20.50
2019-05-28T08:27:29.606Z,20.70
2019-05-28T08:29:59.469Z,20.90
2019-05-28T08:32:29.518Z,21.20
2019-05-28T08:35:05.342Z,21.40
2019-05-28T08:37:31.081Z,21.80
2019-05-28T08:40:01.898Z,22.10
2019-05-28T08:42:31.818Z,22.50
2019-05-28T08:45:01.891Z,22.90
2019-05-28T08:47:32.731Z,23.20
2019-05-28T08:50:02.737Z,23.50
2019-05-28T08:52:33.378Z,23.60
2019-05-28T08:55:03.961Z,23.70
2019-05-28T08:57:33.971Z,23.80
2019-05-28T09:00:07.149Z,23.80
2019-05-28T09:02:43.776Z,23.80
2019-05-28T09:05:25.659Z,23.80
2019-05-28T09:07:45.285Z,23.70
2019-05-28T09:10:15.104Z,23.60
2019-05-28T09:12:45.005Z,23.60
2019-05-28T09:15:14.812Z,23.50
2019-05-28T09:17:44.621Z,23.50
2019-05-28T09:20:14.795Z,23.40
2019-05-28T09:22:44.624Z,23.30
2019-05-28T09:25:14.523Z,23.20
2019-05-28T09:27:44.698Z,23.10
2019-05-28T09:30:16.233Z,23.10
2019-05-28T09:32:46.117Z,23.00
2019-05-28T09:35:16.270Z,22.90
2019-05-28T09:37:46.086Z,22.80
2019-05-28T09:40:17.555Z,22.70
2019-05-28T09:42:47.387Z,22.50
2019-05-28T09:45:22.872Z,22.40
2019-05-28T09:47:49.192Z,22.30
2019-05-28T09:50:30.558Z,22.10
2019-05-28T09:52:55.070Z,22.00
2019-05-28T09:55:22.545Z,21.90
2019-05-28T09:57:52.372Z,21.80
2019-05-28T10:00:23.936Z,21.70
2019-05-28T10:02:53.753Z,21.70
2019-05-28T10:05:23.694Z,21.60
2019-05-28T10:07:53.619Z,21.60
2019-05-28T10:10:23.786Z,21.50
2019-05-28T10:12:53.764Z,21.50
2019-05-28T10:15:23.872Z,21.50
2019-05-28T10:17:53.750Z,21.50
2019-05-28T10:20:24.115Z,21.60
2019-05-28T10:22:53.932Z,21.60
2019-05-28T10:25:24.002Z,21.60
2019-05-28T10:28:00.853Z,21.70
2019-05-28T10:30:25.859Z,21.80
2019-05-28T10:32:55.672Z,21.90
2019-05-28T10:35:25.837Z,22.00
2019-05-28T10:37:55.695Z,22.00
2019-05-28T10:40:25.633Z,22.10
2019-05-28T10:42:55.628Z,22.10
2019-05-28T10:45:25.802Z,22.20
2019-05-28T10:47:55.629Z,22.40
2019-05-28T10:50:25.481Z,22.50
2019-05-28T10:52:55.290Z,22.60
2019-05-28T10:55:25.172Z,22.70
2019-05-28T10:57:55.033Z,22.90
2019-05-28T11:00:25.113Z,23.00
2019-05-28T11:02:55.008Z,23.10
2019-05-28T11:05:25.064Z,23.10
2019-05-28T11:07:54.901Z,23.10
2019-05-28T11:10:26.421Z,23.00
2019-05-28T11:12:56.236Z,23.00
2019-05-28T11:15:26.719Z,22.90
2019-05-28T11:17:56.810Z,22.90
2019-05-28T11:20:26.865Z,22.90
2019-05-28T11:22:56.773Z,22.80
2019-05-28T11:25:26.850Z,22.80
2019-05-28T11:27:56.782Z,22.80
2019-05-28T11:30:27.346Z,22.80
2019-05-28T11:32:57.255Z,22.70
2019-05-28T11:35:27.306Z,22.60
2019-05-28T11:37:57.221Z,22.50
2019-05-28T11:40:29.986Z,22.40
2019-05-28T11:42:58.689Z,22.20
2019-05-28T11:45:28.596Z,22.00
2019-05-28T11:47:58.539Z,21.90
2019-05-28T11:50:28.413Z,21.80
2019-05-28T11:52:58.362Z,21.70
2019-05-28T11:55:28.281Z,21.70
2019-05-28T11:57:58.145Z,21.60
2019-05-28T12:00:28.655Z,21.60
2019-05-28T12:02:58.651Z,21.60
2019-05-28T12:05:28.658Z,21.50
2019-05-28T12:07:58.599Z,21.50
2019-05-28T12:10:29.673Z,21.50
2019-05-28T12:12:59.654Z,21.40
2019-05-28T12:15:30.258Z,21.30
2019-05-28T12:18:00.228Z,21.30
2019-05-28T12:20:30.800Z,21.20
2019-05-28T12:23:11.032Z,21.00
2019-05-28T12:25:33.177Z,20.80
2019-05-28T12:28:03.075Z,20.70
2019-05-28T12:30:33.082Z,20.60
2019-05-28T12:33:03.262Z,20.50
2019-05-28T12:35:33.152Z,20.40
2019-05-28T12:38:03.141Z,20.40
2019-05-28T12:40:46.205Z,20.40
2019-05-28T12:43:04.713Z,20.30
2019-05-28T12:45:36.124Z,20.20
2019-05-28T12:48:12.163Z,20.20
2019-05-28T12:50:37.903Z,20.10
2019-05-28T12:53:07.762Z,20.00
2019-05-28T12:55:37.630Z,20.00
2019-05-28T12:58:07.541Z,19.90
2019-05-28T13:00:37.894Z,19.90
2019-05-28T13:03:07.909Z,19.80
2019-05-28T13:05:39.694Z,19.80
2019-05-28T13:08:10.634Z,19.90
2019-05-28T13:10:40.669Z,19.90
2019-05-28T13:13:12.250Z,19.90
2019-05-28T13:15:42.911Z,20.00
2019-05-28T13:18:14.624Z,20.00
2019-05-28T13:20:47.955Z,20.00
2019-05-28T13:23:16.045Z,20.10
2019-05-28T13:25:46.001Z,20.10
2019-05-28T13:28:16.135Z,20.10
2019-05-28T13:30:46.715Z,20.00
2019-05-28T13:33:16.800Z,20.00
2019-05-28T13:35:47.056Z,20.00
2019-05-28T13:38:26.873Z,20.00
2019-05-28T13:40:48.556Z,20.00
2019-05-28T13:43:18.495Z,19.90
2019-05-28T13:45:48.513Z,19.90
2019-05-28T13:48:19.106Z,19.90
2019-05-28T13:50:49.052Z,19.90
2019-05-28T13:53:18.956Z,19.90
2019-05-28T13:55:48.816Z,19.90
2019-05-28T13:58:18.679Z,19.90
2019-05-28T14:00:48.542Z,19.90
2019-05-28T14:03:18.415Z,19.90
2019-05-28T14:05:49.333Z,19.90
2019-05-28T14:08:19.242Z,20.00
2019-05-28T14:10:49.163Z,20.00
2019-05-28T14:13:19.018Z,19.90
2019-05-28T14:15:48.857Z,19.90
2019-05-28T14:18:18.826Z,19.90
2019-05-28T14:20:48.695Z,19.90
2019-05-28T14:23:18.561Z,19.80
2019-05-28T14:25:48.464Z,19.80
2019-05-28T14:28:18.309Z,19.80
2019-05-28T14:30:59.210Z,19.80
2019-05-28T14:33:19.776Z,19.80
2019-05-28T14:35:50.305Z,19.80
2019-05-28T14:38:20.900Z,19.90
2019-05-28T14:40:51.204Z,19.90
2019-05-28T14:43:21.777Z,20.00
2019-05-28T14:45:52.475Z,20.00
2019-05-28T14:48:22.344Z,19.90
2019-05-28T14:50:52.182Z,19.80
2019-05-28T14:53:22.119Z,19.70
2019-05-28T14:55:51.965Z,19.70
2019-05-28T14:58:22.568Z,19.60
2019-05-28T15:00:52.429Z,19.50
2019-05-28T15:03:23.267Z,19.50
2019-05-28T15:05:53.153Z,19.50
2019-05-28T15:08:23.090Z,19.40
2019-05-28T15:10:53.045Z,19.50
2019-05-28T15:13:22.926Z,19.50
2019-05-28T15:15:53.744Z,19.50
2019-05-28T15:18:23.745Z,19.50
2019-05-28T15:20:53.686Z,19.50
2019-05-28T15:23:23.582Z,19.50
2019-05-28T15:25:53.514Z,19.50
2019-05-28T15:28:23.466Z,19.50
2019-05-28T15:30:53.542Z,19.50
2019-05-28T15:33:23.518Z,19.50
2019-05-28T15:35:56.108Z,19.50
2019-05-28T15:38:24.921Z,19.40
2019-05-28T15:40:54.790Z,19.40
2019-05-28T15:43:24.696Z,19.40
2019-05-28T15:45:56.287Z,19.40
2019-05-28T15:48:26.241Z,19.40
2019-05-28T15:50:56.817Z,19.30
2019-05-28T15:53:26.837Z,19.30
2019-05-28T15:55:57.430Z,19.30
2019-05-28T15:58:27.269Z,19.10
2019-05-28T16:00:57.118Z,19.10
2019-05-28T16:03:26.976Z,19.00
2019-05-28T16:05:56.935Z,18.90
2019-05-28T16:08:26.745Z,18.90
2019-05-28T16:10:56.602Z,18.80
2019-05-28T16:13:27.529Z,18.70
2019-05-28T16:15:58.817Z,18.70
2019-05-28T16:18:28.754Z,18.60
2019-05-28T16:20:59.332Z,18.60
2019-05-28T16:23:29.125Z,18.60
2019-05-28T16:25:58.938Z,18.60
2019-05-28T16:28:28.782Z,18.60
2019-05-28T16:31:11.697Z,18.60
2019-05-28T16:33:30.280Z,18.60
2019-05-28T16:36:00.099Z,18.60
2019-05-28T16:38:29.919Z,18.60
2019-05-28T16:40:59.772Z,18.60
2019-05-28T16:43:29.580Z,18.50
2019-05-28T16:45:59.467Z,18.60
2019-05-28T16:48:29.407Z,18.50
2019-05-28T16:50:59.934Z,18.40
2019-05-28T16:53:29.873Z,18.40
2019-05-28T16:55:59.685Z,18.40
2019-05-28T16:58:29.502Z,18.30
2019-05-28T17:01:20.857Z,18.30
2019-05-28T17:03:31.107Z,18.20
2019-05-28T17:06:00.945Z,18.20
2019-05-28T17:08:31.614Z,18.20
2019-05-28T17:11:01.570Z,18.10
2019-05-28T17:13:33.563Z,18.10
2019-05-28T17:16:03.538Z,18.00
2019-05-28T17:18:33.460Z,18.00
2019-05-28T17:21:03.970Z,17.90
2019-05-28T17:23:34.094Z,17.80
2019-05-28T17:26:05.095Z,17.80
2019-05-28T17:28:35.105Z,17.80
2019-05-28T17:31:04.922Z,17.70
2019-05-28T17:33:34.854Z,17.70
2019-05-28T17:36:04.742Z,17.60
2019-05-28T17:38:34.685Z,17.60
2019-05-28T17:41:04.716Z,17.60
2019-05-28T17:43:34.512Z,17.60
2019-05-28T17:46:05.066Z,17.60
2019-05-28T17:48:34.981Z,17.50
2019-05-28T17:51:05.000Z,17.50
2019-05-28T17:53:34.893Z,17.50
2019-05-28T17:56:07.814Z,17.50
2019-05-28T17:58:36.345Z,17.40
2019-05-28T18:01:06.156Z,17.40
2019-05-28T18:03:35.969Z,17.40
2019-05-28T18:06:05.934Z,17.40
2019-05-28T18:08:35.800Z,17.40
2019-05-28T18:11:05.600Z,17.40
2019-05-28T18:13:35.456Z,17.40
2019-05-28T18:16:05.373Z,17.40
2019-05-28T18:18:35.313Z,17.40
2019-05-28T18:21:05.214Z,17.30
2019-05-28T18:23:35.026Z,17.30
2019-05-28T18:26:04.879Z,17.30
2019-05-28T18:28:34.806Z,17.30
2019-05-28T18:31:04.626Z,17.30
2019-05-28T18:33:34.682Z,17.20
2019-05-28T18:36:04.492Z,17.20
2019-05-28T18:38:34.437Z,17.20
2019-05-28T18:41:20.381Z,17.20
2019-05-28T18:43:35.905Z,17.20
2019-05-28T18:46:06.504Z,17.20
2019-05-28T18:48:38.385Z,17.10
2019-05-28T18:51:07.969Z,17.10
2019-05-28T18:53:37.895Z,17.00
2019-05-28T18:56:17.213Z,17.00
2019-05-28T18:58:39.502Z,16.90
2019-05-28T19:01:09.438Z,16.90
2019-05-28T19:03:39.372Z,16.80
2019-05-28T19:06:09.186Z,16.80
2019-05-28T19:08:39.025Z,16.80
2019-05-28T19:11:08.927Z,16.70
2019-05-28T19:13:38.824Z,16.70
2019-05-28T19:16:08.644Z,16.70
2019-05-28T19:18:38.505Z,16.60
2019-05-28T19:21:08.361Z,16.60
2019-05-28T19:23:38.180Z,16.60
2019-05-28T19:26:08.147Z,16.60
2019-05-28T19:28:38.964Z,16.60
2019-05-28T19:31:08.932Z,16.60
2019-05-28T19:33:38.868Z,16.50
2019-05-28T19:36:10.393Z,16.50
2019-05-28T19:38:45.586Z,16.50
2019-05-28T19:41:13.495Z,16.40
2019-05-28T19:43:43.328Z,16.40
2019-05-28T19:46:13.148Z,16.40
2019-05-28T19:48:43.065Z,16.40
2019-05-28T19:51:12.878Z,16.30
2019-05-28T19:53:42.795Z,16.30
2019-05-28T19:56:12.635Z,16.30
2019-05-28T19:58:42.508Z,16.20
2019-05-28T20:01:12.413Z,16.20
2019-05-28T20:03:42.358Z,16.10
2019-05-28T20:06:12.257Z,16.10
2019-05-28T20:08:42.149Z,16.10
2019-05-28T20:11:11.929Z,16.10
2019-05-28T20:13:41.773Z,16.10
2019-05-28T20:16:11.662Z,16.10
2019-05-28T20:18:41.424Z,16.10
2019-05-28T20:21:11.202Z,16.10
2019-05-28T20:23:41.078Z,16.10
2019-05-28T20:26:10.852Z,16.10
2019-05-28T20:28:40.642Z,16.10
2019-05-28T20:31:10.473Z,16.10
2019-05-28T20:33:40.277Z,16.10
2019-05-28T20:36:10.140Z,16.10
2019-05-28T20:38:40.031Z,16.10
2019-05-28T20:41:10.202Z,16.10
2019-05-28T20:43:41.097Z,16.00
2019-05-28T20:46:10.914Z,16.00
2019-05-28T20:48:40.881Z,15.90
2019-05-28T20:51:20.215Z,15.90
2019-05-28T20:53:42.314Z,15.80
2019-05-28T20:56:12.253Z,15.80
2019-05-28T20:58:42.155Z,15.80
2019-05-28T21:01:11.936Z,15.70
2019-05-28T21:03:41.901Z,15.70
2019-05-28T21:06:11.798Z,15.70
2019-05-28T21:08:41.622Z,15.60
2019-05-28T21:11:12.420Z,15.60
2019-05-28T21:13:42.250Z,15.60
2019-05-28T21:16:12.058Z,15.60
2019-05-28T21:18:41.828Z,15.60
2019-05-28T21:21:11.822Z,15.60
2019-05-28T21:23:41.637Z,15.60
2019-05-28T21:26:11.465Z,15.60
2019-05-28T21:28:41.225Z,15.60
2019-05-28T21:31:12.094Z,15.50
2019-05-28T21:33:41.862Z,15.50
2019-05-28T21:36:11.770Z,15.50
2019-05-28T21:38:41.586Z,15.50
2019-05-28T21:41:11.467Z,15.50
2019-05-28T21:43:42.021Z,15.50
2019-05-28T21:46:13.010Z,15.50
2019-05-28T21:48:42.821Z,15.50
2019-05-28T21:51:12.720Z,15.50
2019-05-28T21:53:42.618Z,15.60
2019-05-28T21:56:12.397Z,15.50
2019-05-28T21:58:42.170Z,15.50
2019-05-28T22:01:23.794Z,15.50
2019-05-28T22:03:53.688Z,15.50
2019-05-28T22:06:23.598Z,15.50
2019-05-28T22:08:53.426Z,15.50
2019-05-28T22:11:23.236Z,15.50
2019-05-28T22:13:53.221Z,15.40
2019-05-28T22:16:23.001Z,15.40
2019-05-28T22:18:52.890Z,15.40
2019-05-28T22:21:23.405Z,15.40
2019-05-28T22:23:53.229Z,15.40
2019-05-28T22:26:23.236Z,15.40
2019-05-28T22:28:53.074Z,15.40
2019-05-28T22:31:23.010Z,15.40
2019-05-28T22:33:52.822Z,15.40
2019-05-28T22:36:22.593Z,15.40
2019-05-28T22:39:08.957Z,15.40
2019-05-28T22:41:40.876Z,15.40
2019-05-28T22:44:11.218Z,15.40
2019-05-28T22:46:41.033Z,15.40
2019-05-28T22:49:11.558Z,15.30
2019-05-28T22:51:41.374Z,15.30
2019-05-28T22:54:12.939Z,15.30
2019-05-28T22:56:44.846Z,15.30
2019-05-28T22:59:14.741Z,15.30
2019-05-28T23:01:44.676Z,15.30
2019-05-28T23:04:14.652Z,15.30
2019-05-28T23:06:44.567Z,15.30
2019-05-28T23:09:14.457Z,15.30
2019-05-28T23:11:44.281Z,15.30
2019-05-28T23:14:14.136Z,15.30
2019-05-28T23:16:43.954Z,15.20
2019-05-28T23:19:13.766Z,15.20
2019-05-28T23:21:43.533Z,15.20
2019-05-28T23:24:13.481Z,15.10
2019-05-28T23:26:43.301Z,15.10
2019-05-28T23:29:13.114Z,15.00
2019-05-28T23:31:42.929Z,15.00
2019-05-28T23:34:12.749Z,15.00
2019-05-28T23:36:42.526Z,14.90
2019-05-28T23:39:13.235Z,14.90
2019-05-28T23:41:43.188Z,14.80
2019-05-28T23:44:14.041Z,14.80
2019-05-28T23:46:43.872Z,14.80
2019-05-28T23:49:14.730Z,14.80
2019-05-28T23:51:44.546Z,14.80
2019-05-28T23:54:14.462Z,14.80
2019-05-28T23:56:44.310Z,14.80
2019-05-28T23:59:14.084Z,14.80
